Time;durP1;ratioP1;P1;durP2;ratioP2;P2;SDS_P1;SDS_P2;PMS_P1;PMS_P2;Temp;Humidity;BMP_temperature;BMP_pressure;BME280_temperature;BME280_humidity;BME280_pressure;Samples;Min_cycle;Max_cycle;Signal;HPM_P1;HPM_P2
2021/12/16 00:01:49;;;;;;;;;;;2.90;99.90;;;;;;5052403;28;19920;-82
2021/12/16 00:09:48;;;;;;;;;;;2.90;99.90;;;;;;5054624;28;19912;-82
2021/12/16 00:31:46;;;;;;;;;;;2.80;99.90;;;;;;5056908;28;19962;-83
2021/12/16 00:34:12;;;;;;;;;;;2.80;99.90;;;;;;5056929;28;19908;-83
2021/12/16 00:36:39;;;;;;;;;;;2.70;99.90;;;;;;5054483;28;19919;-83
2021/12/16 00:39:07;;;;;;;;;;;2.70;99.90;;;;;;5055902;28;19916;-83
2021/12/16 00:41:33;;;;;;;;;;;2.70;99.90;;;;;;5055277;28;20124;-82
2021/12/16 00:44:09;;;;;;;;;;;2.70;99.90;;;;;;5054487;28;19936;-83
2021/12/16 00:49:34;;;;;;;;;;;2.70;99.90;;;;;;5057200;28;19975;-83
2021/12/16 00:54:49;;;;;;;;;;;2.70;99.90;;;;;;5055192;28;20361;-83
2021/12/16 00:57:16;;;;;;;;;;;2.80;99.90;;;;;;5047456;28;20334;-83
2021/12/16 00:59:45;;;;;;;;;;;2.70;99.90;;;;;;5056125;28;19963;-82
2021/12/16 01:02:41;;;;;;;;;;;2.70;99.90;;;;;;5055688;28;19909;-83
2021/12/16 01:34:32;;;;;;;;;;;2.80;99.90;;;;;;5054132;28;20236;-83
2021/12/16 01:37:28;;;;;;;;;;;2.70;99.90;;;;;;5053804;28;19951;-83
2021/12/16 01:50:19;;;;;;;;;;;2.80;99.90;;;;;;5054143;28;19948;-83
2021/12/16 01:55:24;;;;;;;;;;;2.80;99.90;;;;;;5053834;28;19913;-83
2021/12/16 01:57:55;;;;;;;;;;;2.80;99.90;;;;;;5049029;28;20255;-83
2021/12/16 02:00:27;;;;;;;;;;;2.80;99.90;;;;;;5051852;28;19908;-83
2021/12/16 02:02:59;;;;;;;;;;;2.80;99.90;;;;;;5047773;28;19912;-83
2021/12/16 02:10:37;;;;;;;;;;;2.80;99.90;;;;;;5053269;28;20281;-83
2021/12/16 02:32:44;;;;;;;;;;;2.80;99.90;;;;;;5004601;28;19910;-82
2021/12/16 02:36:00;;;;;;;;;;;2.80;99.90;;;;;;5037697;28;19913;-83
2021/12/16 02:38:00;;;;;;;;;;;2.80;99.90;;;;;;5049986;28;19909;-83
2021/12/16 02:40:26;;;;;;;;;;;2.80;99.90;;;;;;5053163;28;20018;-83
2021/12/16 02:50:46;;;;;;;;;;;2.80;99.90;;;;;;5052162;28;20390;-83
2021/12/16 02:53:12;;;;;;;;;;;2.80;99.90;;;;;;5050284;28;19913;-83
2021/12/16 02:55:37;;;;;;;;;;;2.80;99.90;;;;;;5050207;28;19912;-83
2021/12/16 02:58:03;;;;;;;;;;;2.80;99.90;;;;;;5052611;28;19908;-83
2021/12/16 03:00:31;;;;;;;;;;;2.80;99.90;;;;;;5051941;28;19962;-83
2021/12/16 03:02:56;;;;;;;;;;;2.80;99.90;;;;;;5051753;28;19924;-83
2021/12/16 03:05:22;;;;;;;;;;;2.80;99.90;;;;;;5051122;28;20246;-83
2021/12/16 03:07:49;;;;;;;;;;;2.80;99.90;;;;;;5051979;28;19909;-83
2021/12/16 03:13:30;;;;;;;;;;;2.80;99.90;;;;;;5051680;28;19909;-83
2021/12/16 03:36:07;;;;;;;;;;;2.80;99.90;;;;;;5051497;28;20377;-83
2021/12/16 03:38:34;;;;;;;;;;;2.80;99.90;;;;;;5050119;28;19992;-83
2021/12/16 03:41:00;;;;;;;;;;;2.80;99.90;;;;;;5050320;28;19909;-83
2021/12/16 03:43:28;;;;;;;;;;;2.80;99.90;;;;;;5051957;28;20261;-83
2021/12/16 03:48:37;;;;;;;;;;;2.80;99.90;;;;;;5051408;28;19913;-83
2021/12/16 03:51:08;;;;;;;;;;;2.80;99.90;;;;;;5052336;28;20434;-83
2021/12/16 03:53:34;;;;;;;;;;;2.80;99.90;;;;;;5052022;28;20358;-82
2021/12/16 03:55:59;;;;;;;;;;;2.80;99.90;;;;;;5073606;28;19909;-82
2021/12/16 03:58:25;;;;;;;;;;;2.80;99.90;;;;;;5075146;28;19908;-83
2021/12/16 04:00:53;;;;;;;;;;;2.80;99.90;;;;;;5058268;28;19909;-83
2021/12/16 04:03:19;;;;;;;;;;;2.80;99.90;;;;;;5053418;28;19916;-82
2021/12/16 04:05:45;;;;;;;;;;;2.70;99.90;;;;;;5053554;28;19913;-83
2021/12/16 04:08:11;;;;;;;;;;;2.70;99.90;;;;;;5056300;28;19924;-83
2021/12/16 04:11:00;;;;;;;;;;;2.60;99.90;;;;;;5054890;28;20297;-82
2021/12/16 04:13:25;;;;;;;;;;;2.60;99.90;;;;;;5053315;28;19916;-83
2021/12/16 04:15:51;;;;;;;;;;;2.60;99.90;;;;;;5054958;28;19909;-83
2021/12/16 04:18:17;;;;;;;;;;;2.60;99.90;;;;;;5054751;28;19913;-82
2021/12/16 04:20:43;;;;;;;;;;;2.60;99.90;;;;;;5053264;28;20000;-83
2021/12/16 04:23:10;;;;;;;;;;;2.60;99.90;;;;;;5053932;28;19919;-83
2021/12/16 04:25:37;;;;;;;;;;;2.70;99.90;;;;;;5053719;28;19913;-82
2021/12/16 04:28:04;;;;;;;;;;;2.60;99.90;;;;;;5050610;28;19990;-83
2021/12/16 04:30:30;;;;;;;;;;;2.60;99.90;;;;;;5053342;28;19909;-83
2021/12/16 04:32:56;;;;;;;;;;;2.60;99.90;;;;;;5052660;28;19909;-83
2021/12/16 04:35:22;;;;;;;;;;;2.60;99.90;;;;;;5054480;28;19931;-83
2021/12/16 04:37:48;;;;;;;;;;;2.60;99.90;;;;;;5052852;28;19909;-83
2021/12/16 04:40:14;;;;;;;;;;;2.60;99.90;;;;;;5054168;28;19912;-82
2021/12/16 04:42:41;;;;;;;;;;;2.70;99.90;;;;;;5053849;28;20414;-83
2021/12/16 04:45:08;;;;;;;;;;;2.70;99.90;;;;;;5052589;28;19916;-83
2021/12/16 04:47:34;;;;;;;;;;;2.60;99.90;;;;;;5053803;28;20362;-82
2021/12/16 04:50:00;;;;;;;;;;;2.50;99.90;;;;;;5053948;28;20015;-82
2021/12/16 04:52:25;;;;;;;;;;;2.50;99.90;;;;;;5053913;28;19909;-83
2021/12/16 04:54:51;;;;;;;;;;;2.50;99.90;;;;;;5052925;28;19909;-82
2021/12/16 04:57:17;;;;;;;;;;;2.50;99.90;;;;;;5047345;28;19910;-83
2021/12/16 04:59:43;;;;;;;;;;;2.50;99.90;;;;;;5053759;28;19912;-83
2021/12/16 05:02:19;;;;;;;;;;;2.60;99.90;;;;;;5052390;28;19944;-83
2021/12/16 05:04:45;;;;;;;;;;;2.50;99.90;;;;;;5052014;28;20462;-83
2021/12/16 05:07:11;;;;;;;;;;;2.50;99.90;;;;;;5052337;28;19973;-82
2021/12/16 05:12:06;;;;;;;;;;;2.50;99.90;;;;;;5053872;28;19909;-82
2021/12/16 05:14:32;;;;;;;;;;;2.50;99.90;;;;;;5052261;28;19951;-83
2021/12/16 05:16:57;;;;;;;;;;;2.50;99.90;;;;;;5052503;28;20000;-83
2021/12/16 05:19:23;;;;;;;;;;;2.50;99.90;;;;;;5053688;28;19956;-83
2021/12/16 05:24:14;;;;;;;;;;;2.50;99.90;;;;;;5052581;28;19909;-83
2021/12/16 05:24:44;;;;;;;;;;;2.50;99.90;;;;;;5052850;28;19909;-83
2021/12/16 05:27:10;;;;;;;;;;;2.50;99.90;;;;;;5051486;28;20374;-83
2021/12/16 05:29:35;;;;;;;;;;;2.60;99.90;;;;;;5053408;28;19909;-83
2021/12/16 05:32:01;;;;;;;;;;;2.60;99.90;;;;;;5053521;28;19909;-83
2021/12/16 05:34:27;;;;;;;;;;;2.60;99.90;;;;;;5051704;28;19938;-83
2021/12/16 05:36:53;;;;;;;;;;;2.60;99.90;;;;;;5051877;28;20011;-83
2021/12/16 05:39:18;;;;;;;;;;;2.60;99.90;;;;;;5052667;28;19909;-83
2021/12/16 05:41:45;;;;;;;;;;;2.60;99.90;;;;;;5051613;28;19913;-83
2021/12/16 05:44:10;;;;;;;;;;;2.60;99.90;;;;;;5053228;28;19913;-83
2021/12/16 05:46:37;;;;;;;;;;;2.50;99.90;;;;;;5052444;28;20263;-83
2021/12/16 05:49:04;;;;;;;;;;;2.50;99.90;;;;;;5052236;28;19909;-83
2021/12/16 05:51:31;;;;;;;;;;;2.50;99.90;;;;;;5052915;28;20050;-82
2021/12/16 05:53:57;;;;;;;;;;;2.50;99.90;;;;;;5051206;28;20421;-83
2021/12/16 05:56:22;;;;;;;;;;;2.60;99.90;;;;;;5053116;28;19916;-83
2021/12/16 05:58:48;;;;;;;;;;;2.60;99.90;;;;;;5048667;28;19909;-83
2021/12/16 06:01:15;;;;;;;;;;;2.50;99.90;;;;;;5052954;28;19909;-83
2021/12/16 06:03:42;;;;;;;;;;;2.60;99.90;;;;;;5050779;28;19915;-82
2021/12/16 06:06:08;;;;;;;;;;;2.70;99.90;;;;;;5051612;28;19920;-83
2021/12/16 06:08:34;;;;;;;;;;;2.70;99.90;;;;;;5051980;28;19909;-83
2021/12/16 06:13:35;;;;;;;;;;;2.70;99.90;;;;;;5053123;28;19909;-82
2021/12/16 06:27:00;;;;;;;;;;;2.60;99.90;;;;;;5050497;28;20396;-83
2021/12/16 06:29:27;;;;;;;;;;;2.60;99.90;;;;;;5052263;28;19961;-83
2021/12/16 06:31:52;;;;;;;;;;;2.70;99.90;;;;;;5052845;28;20285;-83
2021/12/16 06:34:18;;;;;;;;;;;2.60;99.90;;;;;;5054431;28;19916;-83
2021/12/16 06:36:44;;;;;;;;;;;2.70;99.90;;;;;;5052717;28;19909;-81
2021/12/16 06:39:09;;;;;;;;;;;2.80;99.90;;;;;;5052621;28;19973;-81
2021/12/16 06:41:37;;;;;;;;;;;2.80;99.90;;;;;;5052911;28;19908;-81
2021/12/16 06:44:07;;;;;;;;;;;2.80;99.90;;;;;;5054030;28;20338;-81
2021/12/16 06:46:36;;;;;;;;;;;2.80;99.90;;;;;;5052737;28;20447;-81
2021/12/16 06:49:03;;;;;;;;;;;2.80;99.90;;;;;;5052765;28;20245;-81
2021/12/16 06:51:47;;;;;;;;;;;2.90;99.90;;;;;;5052686;28;19909;-81
2021/12/16 06:54:20;;;;;;;;;;;2.80;99.90;;;;;;5056491;28;19916;-82
2021/12/16 06:57:04;;;;;;;;;;;2.70;99.90;;;;;;5052692;28;19909;-82
2021/12/16 06:59:40;;;;;;;;;;;2.70;99.90;;;;;;5058177;28;20007;-82
2021/12/16 07:02:15;;;;;;;;;;;2.70;99.90;;;;;;5052861;28;19948;-82
2021/12/16 07:04:43;;;;;;;;;;;2.70;99.90;;;;;;5055409;28;19916;-81
2021/12/16 07:07:10;;;;;;;;;;;2.60;99.90;;;;;;5057550;28;19944;-81
2021/12/16 07:09:35;;;;;;;;;;;2.70;99.90;;;;;;5059392;28;19909;-82
2021/12/16 07:12:01;;;;;;;;;;;2.80;99.90;;;;;;5057366;28;19908;-82
2021/12/16 07:14:36;;;;;;;;;;;2.80;99.90;;;;;;5058089;28;19909;-82
2021/12/16 07:17:04;;;;;;;;;;;2.80;99.90;;;;;;5057305;28;19920;-82
2021/12/16 07:19:29;;;;;;;;;;;2.80;99.90;;;;;;5056861;28;19959;-82
2021/12/16 07:21:55;;;;;;;;;;;2.80;99.90;;;;;;5056354;28;19913;-82
2021/12/16 07:24:20;;;;;;;;;;;2.90;99.90;;;;;;5058515;28;19908;-82
2021/12/16 07:26:46;;;;;;;;;;;2.90;99.90;;;;;;5048395;28;19923;-82
2021/12/16 07:29:12;;;;;;;;;;;2.90;99.90;;;;;;5058796;28;19920;-82
2021/12/16 07:31:39;;;;;;;;;;;2.90;99.90;;;;;;5060323;28;19909;-82
2021/12/16 07:34:05;;;;;;;;;;;2.90;99.90;;;;;;5061691;28;19909;-82
2021/12/16 07:36:32;;;;;;;;;;;2.90;99.90;;;;;;5061116;28;19909;-82
2021/12/16 07:38:57;;;;;;;;;;;2.90;99.90;;;;;;5061306;28;20370;-82
2021/12/16 07:41:26;;;;;;;;;;;2.90;99.90;;;;;;5061791;28;19920;-82
2021/12/16 07:44:10;;;;;;;;;;;2.90;99.90;;;;;;5060710;28;19951;-82
2021/12/16 07:46:36;;;;;;;;;;;2.90;99.90;;;;;;5059886;28;19919;-81
2021/12/16 07:49:03;;;;;;;;;;;2.90;99.90;;;;;;5058968;28;19917;-82
2021/12/16 07:51:28;;;;;;;;;;;2.80;99.90;;;;;;5060754;28;19909;-82
2021/12/16 07:53:54;;;;;;;;;;;2.80;99.90;;;;;;5060026;28;19915;-82
2021/12/16 07:56:19;;;;;;;;;;;2.80;99.90;;;;;;5059087;28;19908;-81
2021/12/16 07:58:45;;;;;;;;;;;2.80;99.90;;;;;;5055664;28;20468;-82
2021/12/16 08:01:10;;;;;;;;;;;2.90;99.90;;;;;;5060178;28;20354;-82
2021/12/16 08:03:37;;;;;;;;;;;2.90;99.90;;;;;;5059602;28;19909;-82
2021/12/16 08:06:05;;;;;;;;;;;3.00;99.90;;;;;;5058425;28;20372;-82
2021/12/16 08:08:31;;;;;;;;;;;3.00;99.90;;;;;;5060084;28;20278;-83
2021/12/16 08:10:58;;;;;;;;;;;3.00;99.90;;;;;;5059964;28;19976;-82
2021/12/16 08:13:23;;;;;;;;;;;3.00;99.90;;;;;;5059138;28;19932;-82
2021/12/16 08:15:49;;;;;;;;;;;3.00;99.90;;;;;;5057522;28;19963;-82
2021/12/16 08:18:15;;;;;;;;;;;3.00;99.90;;;;;;5059602;28;20289;-83
2021/12/16 08:20:40;;;;;;;;;;;3.00;99.90;;;;;;5058850;28;20277;-82
2021/12/16 08:23:06;;;;;;;;;;;3.10;99.90;;;;;;5056990;28;19909;-82
2021/12/16 08:25:32;;;;;;;;;;;3.10;99.90;;;;;;5056644;28;19913;-83
2021/12/16 08:27:59;;;;;;;;;;;3.10;99.90;;;;;;5057143;28;19923;-82
2021/12/16 08:30:28;;;;;;;;;;;3.10;99.90;;;;;;5058595;28;19970;-82
2021/12/16 08:32:54;;;;;;;;;;;3.10;99.90;;;;;;5059295;28;19909;-82
2021/12/16 08:35:20;;;;;;;;;;;3.10;99.90;;;;;;5058359;28;19909;-82
2021/12/16 08:37:46;;;;;;;;;;;3.10;99.90;;;;;;5058401;28;19954;-82
2021/12/16 08:40:18;;;;;;;;;;;3.20;99.90;;;;;;5058655;28;20020;-82
2021/12/16 08:42:44;;;;;;;;;;;3.10;99.90;;;;;;5059440;28;19948;-82
2021/12/16 08:45:11;;;;;;;;;;;3.10;99.90;;;;;;5058453;28;19978;-82
2021/12/16 08:47:37;;;;;;;;;;;3.20;99.90;;;;;;5059394;28;19909;-82
2021/12/16 08:50:03;;;;;;;;;;;3.20;99.90;;;;;;5058708;28;20627;-82
2021/12/16 08:52:29;;;;;;;;;;;3.20;99.90;;;;;;5059432;28;19944;-82
2021/12/16 08:54:55;;;;;;;;;;;3.30;99.90;;;;;;5058651;28;19932;-82
2021/12/16 08:57:20;;;;;;;;;;;3.30;99.90;;;;;;5052222;28;19913;-82
2021/12/16 08:59:47;;;;;;;;;;;3.40;99.90;;;;;;5058455;28;19916;-83
2021/12/16 09:02:14;;;;;;;;;;;3.40;99.90;;;;;;5058743;28;19920;-82
2021/12/16 09:04:40;;;;;;;;;;;3.50;99.90;;;;;;5057561;28;20000;-82
2021/12/16 09:07:07;;;;;;;;;;;3.50;99.90;;;;;;5057093;28;20029;-82
2021/12/16 09:09:35;;;;;;;;;;;3.50;99.90;;;;;;5059282;28;20306;-82
2021/12/16 09:12:11;;;;;;;;;;;3.50;99.90;;;;;;5056356;28;19909;-82
2021/12/16 09:14:39;;;;;;;;;;;3.50;99.90;;;;;;5057222;28;20324;-82
2021/12/16 09:17:09;;;;;;;;;;;3.60;99.90;;;;;;5058409;28;19909;-82
2021/12/16 09:19:36;;;;;;;;;;;3.60;99.90;;;;;;5058405;28;19952;-82
2021/12/16 09:22:01;;;;;;;;;;;3.70;99.90;;;;;;5056566;28;20377;-82
2021/12/16 09:24:27;;;;;;;;;;;3.70;99.90;;;;;;5056716;28;19941;-82
2021/12/16 09:26:53;;;;;;;;;;;3.80;99.90;;;;;;5054647;28;19920;-82
2021/12/16 09:29:19;;;;;;;;;;;3.80;99.90;;;;;;5053920;28;20059;-82
2021/12/16 09:31:44;;;;;;;;;;;3.70;99.90;;;;;;5055823;28;19959;-82
2021/12/16 09:34:10;;;;;;;;;;;3.80;99.90;;;;;;5054913;28;19994;-82
2021/12/16 09:36:37;;;;;;;;;;;3.80;99.90;;;;;;5057840;28;19908;-82
2021/12/16 09:39:07;;;;;;;;;;;4.00;99.90;;;;;;5055578;28;19908;-82
2021/12/16 09:41:33;;;;;;;;;;;4.00;99.90;;;;;;5057422;28;19908;-82
2021/12/16 09:43:59;;;;;;;;;;;4.00;99.90;;;;;;5057560;28;19931;-81
2021/12/16 09:46:26;;;;;;;;;;;4.20;99.90;;;;;;5055931;28;20038;-82
2021/12/16 09:48:52;;;;;;;;;;;4.10;99.90;;;;;;5057532;28;19909;-82
2021/12/16 09:51:22;;;;;;;;;;;4.20;99.90;;;;;;5057573;28;20003;-82
2021/12/16 09:53:53;;;;;;;;;;;4.30;99.90;;;;;;5055647;28;20266;-82
2021/12/16 09:56:19;;;;;;;;;;;4.30;99.90;;;;;;5056295;28;19919;-82
2021/12/16 09:58:46;;;;;;;;;;;4.40;99.90;;;;;;5054287;28;19974;-82
2021/12/16 10:01:12;;;;;;;;;;;4.40;99.90;;;;;;5058068;28;19951;-82
2021/12/16 10:03:40;;;;;;;;;;;4.40;99.90;;;;;;5056219;28;19909;-82
2021/12/16 10:06:05;;;;;;;;;;;4.50;99.90;;;;;;5057481;28;19913;-82
2021/12/16 10:08:31;;;;;;;;;;;4.60;99.90;;;;;;5055884;28;19916;-82
2021/12/16 10:10:58;;;;;;;;;;;4.70;99.90;;;;;;5056220;28;19909;-82
2021/12/16 10:13:42;;;;;;;;;;;4.60;99.90;;;;;;5087057;28;19928;-81
2021/12/16 10:18:33;;;;;;;;;;;4.60;99.90;;;;;;5093616;28;19962;-81
2021/12/16 10:21:00;;;;;;;;;;;4.70;99.90;;;;;;5087745;28;19909;-82
2021/12/16 10:23:28;;;;;;;;;;;4.70;99.90;;;;;;5073732;28;19908;-82
2021/12/16 10:26:04;;;;;;;;;;;4.80;99.90;;;;;;5074226;28;19947;-82
2021/12/16 10:28:35;;;;;;;;;;;4.60;99.90;;;;;;5071906;28;19909;-82
2021/12/16 10:31:07;;;;;;;;;;;4.50;99.90;;;;;;5072712;28;19915;-81
2021/12/16 10:33:44;;;;;;;;;;;4.50;99.90;;;;;;5071825;28;19913;-81
2021/12/16 10:36:10;;;;;;;;;;;4.50;99.90;;;;;;5071587;28;19984;-82
2021/12/16 10:38:37;;;;;;;;;;;4.50;99.90;;;;;;5073245;28;19947;-82
2021/12/16 10:41:03;;;;;;;;;;;4.50;99.90;;;;;;5078370;28;19920;-81
2021/12/16 10:43:34;;;;;;;;;;;4.60;99.90;;;;;;5091960;28;19909;-80
2021/12/16 10:46:04;;;;;;;;;;;4.60;99.90;;;;;;5090872;28;20272;-81
2021/12/16 10:48:34;;;;;;;;;;;4.80;99.90;;;;;;5092448;28;20344;-80
2021/12/16 10:50:59;;;;;;;;;;;4.70;99.90;;;;;;5090554;28;19909;-81
2021/12/16 10:53:43;;;;;;;;;;;4.80;99.90;;;;;;5091776;28;20411;-80
2021/12/16 10:56:08;;;;;;;;;;;4.90;99.90;;;;;;5077618;28;19908;-81
2021/12/16 10:58:51;;;;;;;;;;;4.80;99.90;;;;;;5072913;28;19909;-81
2021/12/16 11:01:30;;;;;;;;;;;4.90;99.90;;;;;;5072857;28;19909;-80
2021/12/16 11:03:56;;;;;;;;;;;5.10;99.90;;;;;;5072059;28;19936;-81
2021/12/16 11:06:33;;;;;;;;;;;5.10;99.90;;;;;;5066343;28;19909;-81
2021/12/16 11:09:17;;;;;;;;;;;5.00;99.90;;;;;;5070711;28;20266;-81
2021/12/16 11:11:42;;;;;;;;;;;5.00;99.90;;;;;;5070313;28;19924;-82
2021/12/16 11:14:08;;;;;;;;;;;4.90;99.90;;;;;;5071575;28;19909;-81
2021/12/16 11:16:35;;;;;;;;;;;5.00;99.90;;;;;;5071625;28;19915;-80
2021/12/16 11:19:01;;;;;;;;;;;5.00;99.90;;;;;;5071501;28;19999;-81
2021/12/16 11:21:39;;;;;;;;;;;5.10;99.90;;;;;;5068483;28;19994;-80
2021/12/16 11:24:23;;;;;;;;;;;5.00;99.90;;;;;;5061086;28;19905;-81
2021/12/16 11:26:49;;;;;;;;;;;5.10;99.90;;;;;;5057661;28;19912;-80
2021/12/16 11:29:17;;;;;;;;;;;5.00;99.90;;;;;;5064239;28;19955;-80
2021/12/16 11:31:43;;;;;;;;;;;5.00;99.90;;;;;;5063258;28;20371;-80
2021/12/16 11:34:11;;;;;;;;;;;5.00;99.90;;;;;;5057772;28;19909;-81
2021/12/16 11:36:40;;;;;;;;;;;5.10;99.90;;;;;;5057883;28;20269;-81
2021/12/16 11:39:14;;;;;;;;;;;5.30;99.90;;;;;;5057471;28;19909;-81
2021/12/16 11:41:40;;;;;;;;;;;5.30;99.90;;;;;;5057742;28;19909;-81
2021/12/16 11:44:18;;;;;;;;;;;5.30;99.90;;;;;;5056151;28;19924;-81
2021/12/16 11:46:43;;;;;;;;;;;5.30;99.90;;;;;;5056702;28;19920;-81
2021/12/16 11:49:21;;;;;;;;;;;5.30;99.90;;;;;;5056705;28;19909;-81
2021/12/16 11:51:58;;;;;;;;;;;5.30;99.90;;;;;;5056011;28;20296;-81
2021/12/16 11:54:30;;;;;;;;;;;5.20;99.90;;;;;;5056905;28;19955;-81
2021/12/16 11:56:56;;;;;;;;;;;5.10;99.90;;;;;;5060732;28;19986;-81
2021/12/16 11:59:27;;;;;;;;;;;5.30;99.90;;;;;;5055501;28;20396;-81
2021/12/16 12:01:53;;;;;;;;;;;5.20;99.90;;;;;;5055232;28;19923;-81
2021/12/16 12:04:23;;;;;;;;;;;5.30;99.90;;;;;;5056786;28;20003;-81
2021/12/16 12:06:49;;;;;;;;;;;5.20;99.90;;;;;;5057466;28;20345;-81
2021/12/16 12:09:14;;;;;;;;;;;5.20;99.90;;;;;;5056933;28;19909;-81
2021/12/16 12:11:42;;;;;;;;;;;5.30;99.90;;;;;;5055763;28;20011;-81
2021/12/16 12:14:15;;;;;;;;;;;5.30;99.90;;;;;;5054947;28;20370;-81
2021/12/16 12:16:42;;;;;;;;;;;5.40;99.90;;;;;;5056076;28;20004;-81
2021/12/16 12:19:09;;;;;;;;;;;5.30;99.90;;;;;;5056093;28;19962;-81
2021/12/16 12:21:40;;;;;;;;;;;5.30;99.90;;;;;;5055583;28;19909;-81
2021/12/16 12:24:17;;;;;;;;;;;5.40;99.90;;;;;;5073808;28;20246;-81
2021/12/16 12:26:49;;;;;;;;;;;5.50;99.90;;;;;;5056926;28;20348;-81
2021/12/16 12:29:21;;;;;;;;;;;5.50;99.90;;;;;;5062360;28;19909;-81
2021/12/16 12:31:49;;;;;;;;;;;5.30;99.90;;;;;;5055134;28;19935;-81
2021/12/16 12:34:16;;;;;;;;;;;5.30;99.90;;;;;;5053516;28;20644;-81
2021/12/16 12:36:42;;;;;;;;;;;5.40;99.90;;;;;;5061292;28;19934;-81
2021/12/16 12:39:09;;;;;;;;;;;5.50;99.90;;;;;;5055512;28;19909;-81
2021/12/16 12:41:35;;;;;;;;;;;5.50;99.90;;;;;;5069070;28;19908;-82
2021/12/16 12:44:04;;;;;;;;;;;5.50;99.90;;;;;;5074241;28;19908;-82
2021/12/16 12:46:31;;;;;;;;;;;5.60;99.90;;;;;;5074094;28;19962;-82
2021/12/16 12:48:59;;;;;;;;;;;5.50;99.90;;;;;;5058377;28;19915;-81
2021/12/16 12:51:33;;;;;;;;;;;5.60;99.90;;;;;;5055011;28;20281;-82
2021/12/16 12:53:58;;;;;;;;;;;5.70;99.90;;;;;;5056022;28;19931;-81
2021/12/16 12:56:31;;;;;;;;;;;5.60;99.90;;;;;;5063815;28;20286;-81
2021/12/16 12:58:59;;;;;;;;;;;5.50;99.90;;;;;;5074264;28;19915;-82
2021/12/16 13:01:33;;;;;;;;;;;5.50;99.90;;;;;;5069913;28;20282;-81
2021/12/16 13:04:25;;;;;;;;;;;5.70;99.90;;;;;;5058810;28;20260;-82
2021/12/16 13:06:51;;;;;;;;;;;5.60;99.90;;;;;;5061815;28;20405;-82
2021/12/16 13:09:35;;;;;;;;;;;5.50;99.90;;;;;;5059539;28;19944;-82
2021/12/16 13:12:02;;;;;;;;;;;5.60;99.90;;;;;;5053687;28;19917;-82
2021/12/16 13:14:41;;;;;;;;;;;5.50;99.90;;;;;;5053558;28;20000;-82
2021/12/16 13:25:59;;;;;;;;;;;5.80;99.90;;;;;;5054418;28;20331;-81
2021/12/16 13:28:34;;;;;;;;;;;5.80;99.90;;;;;;5054678;28;19909;-82
2021/12/16 13:31:02;;;;;;;;;;;5.80;99.90;;;;;;5053655;28;19948;-81
2021/12/16 13:33:53;;;;;;;;;;;5.70;99.90;;;;;;5053286;28;20457;-82
2021/12/16 13:36:28;;;;;;;;;;;5.80;99.90;;;;;;5048428;28;19909;-82
2021/12/16 13:38:54;;;;;;;;;;;5.70;99.90;;;;;;5058201;28;20491;-82
2021/12/16 13:41:26;;;;;;;;;;;5.70;99.90;;;;;;5054783;28;20343;-81
2021/12/16 13:44:10;;;;;;;;;;;5.70;99.90;;;;;;5053945;28;19912;-81
2021/12/16 13:46:57;;;;;;;;;;;5.80;99.90;;;;;;5053136;28;19916;-82
2021/12/16 14:03:53;;;;;;;;;;;5.50;99.90;;;;;;5074699;28;20272;-82
2021/12/16 14:06:52;;;;;;;;;;;5.40;99.90;;;;;;5068532;28;19915;-82
2021/12/16 14:09:18;;;;;;;;;;;5.50;99.90;;;;;;5054820;28;19939;-82
2021/12/16 14:46:44;;;;;;;;;;;5.20;99.90;;;;;;5074550;28;19908;-81
2021/12/16 14:49:10;;;;;;;;;;;5.20;99.90;;;;;;5074869;28;20258;-81
2021/12/16 14:51:36;;;;;;;;;;;5.30;99.90;;;;;;5072306;28;19912;-80
2021/12/16 14:54:01;;;;;;;;;;;5.30;99.90;;;;;;5072274;28;20001;-81
2021/12/16 14:56:37;;;;;;;;;;;5.20;99.90;;;;;;5074125;28;19931;-81
2021/12/16 14:59:05;;;;;;;;;;;5.20;99.90;;;;;;5076174;28;20280;-80
2021/12/16 15:01:36;;;;;;;;;;;5.20;99.90;;;;;;5078069;28;19944;-80
2021/12/16 15:04:03;;;;;;;;;;;5.20;99.90;;;;;;5077254;28;20372;-81
2021/12/16 15:06:35;;;;;;;;;;;5.10;99.90;;;;;;5069352;28;19912;-81
2021/12/16 15:11:54;;;;;;;;;;;5.00;99.90;;;;;;5059615;28;19920;-81
2021/12/16 15:14:56;;;;;;;;;;;5.00;99.90;;;;;;5059860;28;19908;-81
2021/12/16 15:31:42;;;;;;;;;;;4.80;99.90;;;;;;5058597;28;20354;-81
2021/12/16 15:39:49;;;;;;;;;;;4.10;99.90;;;;;;5062598;28;19908;-81
2021/12/16 15:45:08;;;;;;;;;;;3.60;99.90;;;;;;5058013;28;19976;-81
2021/12/16 15:47:47;;;;;;;;;;;3.40;99.90;;;;;;5057934;28;20385;-81
2021/12/16 15:50:14;;;;;;;;;;;3.30;99.90;;;;;;5055874;28;19909;-81
2021/12/16 15:52:47;;;;;;;;;;;3.20;99.90;;;;;;5066994;28;19919;-81
2021/12/16 15:55:20;;;;;;;;;;;3.30;99.90;;;;;;5075765;28;19920;-81
2021/12/16 15:57:45;;;;;;;;;;;3.20;99.90;;;;;;5076202;28;19909;-81
2021/12/16 16:00:13;;;;;;;;;;;3.00;99.90;;;;;;5076034;28;20007;-81
2021/12/16 16:02:39;;;;;;;;;;;2.90;99.90;;;;;;5077145;28;19913;-81
2021/12/16 16:05:05;;;;;;;;;;;2.80;99.90;;;;;;5076237;28;19916;-81
2021/12/16 16:07:33;;;;;;;;;;;2.70;99.90;;;;;;5059732;28;19938;-81
2021/12/16 16:09:59;;;;;;;;;;;2.60;99.90;;;;;;5057779;28;19908;-81
2021/12/16 16:12:28;;;;;;;;;;;2.50;99.90;;;;;;5055554;28;19916;-81
2021/12/16 16:14:59;;;;;;;;;;;2.40;99.90;;;;;;5055803;28;20066;-81
2021/12/16 16:17:25;;;;;;;;;;;2.30;99.90;;;;;;5056372;28;20388;-81
2021/12/16 16:19:52;;;;;;;;;;;2.30;99.90;;;;;;5056274;28;19909;-81
2021/12/16 16:22:17;;;;;;;;;;;2.10;99.90;;;;;;5056416;28;19930;-81
2021/12/16 16:24:50;;;;;;;;;;;2.00;99.90;;;;;;5056568;28;19972;-82
2021/12/16 16:27:27;;;;;;;;;;;2.00;99.90;;;;;;5057398;28;19909;-82
2021/12/16 16:29:54;;;;;;;;;;;2.00;99.90;;;;;;5050972;28;19913;-82
2021/12/16 16:32:22;;;;;;;;;;;1.90;99.90;;;;;;5054962;28;20404;-82
2021/12/16 16:34:49;;;;;;;;;;;1.70;99.90;;;;;;5055562;28;19935;-81
2021/12/16 16:37:26;;;;;;;;;;;1.50;99.90;;;;;;5056412;28;19909;-81
2021/12/16 16:39:53;;;;;;;;;;;1.50;99.90;;;;;;5059393;28;20358;-81
2021/12/16 16:42:19;;;;;;;;;;;1.30;99.90;;;;;;5057012;28;19917;-82
2021/12/16 16:44:48;;;;;;;;;;;1.30;99.90;;;;;;5055089;28;19913;-82
2021/12/16 16:47:17;;;;;;;;;;;1.30;99.90;;;;;;5065958;28;19951;-82
2021/12/16 16:49:50;;;;;;;;;;;1.40;99.90;;;;;;5074989;28;20298;-82
2021/12/16 16:52:19;;;;;;;;;;;1.40;99.90;;;;;;5074651;28;20368;-81
2021/12/16 16:54:50;;;;;;;;;;;1.40;99.90;;;;;;5076543;28;20029;-82
2021/12/16 16:57:21;;;;;;;;;;;1.40;99.90;;;;;;5076271;28;19912;-82
2021/12/16 16:59:51;;;;;;;;;;;1.40;99.90;;;;;;5076673;28;19908;-82
2021/12/16 17:02:31;;;;;;;;;;;1.40;99.90;;;;;;5075337;28;20003;-82
2021/12/16 17:05:05;;;;;;;;;;;1.30;99.90;;;;;;5049668;28;20366;-82
2021/12/16 17:07:39;;;;;;;;;;;1.20;99.90;;;;;;5053922;28;19955;-81
2021/12/16 17:10:18;;;;;;;;;;;1.20;99.90;;;;;;5053230;28;19909;-82
2021/12/16 17:12:43;;;;;;;;;;;1.20;99.90;;;;;;5055391;28;19980;-82
2021/12/16 17:15:29;;;;;;;;;;;1.10;99.90;;;;;;5057578;28;19948;-81
2021/12/16 17:17:55;;;;;;;;;;;1.20;99.90;;;;;;5055390;28;20011;-81
2021/12/16 17:20:21;;;;;;;;;;;1.20;99.90;;;;;;5057264;28;19936;-81
2021/12/16 17:22:50;;;;;;;;;;;1.10;99.90;;;;;;5056230;28;19991;-81
2021/12/16 17:25:18;;;;;;;;;;;1.10;99.90;;;;;;5057313;28;19909;-81
2021/12/16 17:27:49;;;;;;;;;;;1.00;99.90;;;;;;5055092;28;20404;-81
2021/12/16 17:30:17;;;;;;;;;;;0.80;99.90;;;;;;5055230;28;19943;-81
2021/12/16 17:32:44;;;;;;;;;;;0.80;99.90;;;;;;5056894;28;19920;-81
2021/12/16 17:35:13;;;;;;;;;;;0.90;99.90;;;;;;5054577;28;19908;-81
2021/12/16 17:37:40;;;;;;;;;;;0.90;99.90;;;;;;5059616;28;19909;-81
2021/12/16 17:40:09;;;;;;;;;;;1.00;99.90;;;;;;5062028;28;19997;-81
2021/12/16 17:42:36;;;;;;;;;;;1.10;99.90;;;;;;5068438;28;19956;-81
2021/12/16 17:45:08;;;;;;;;;;;1.20;99.90;;;;;;5074677;28;19916;-81
2021/12/16 17:47:35;;;;;;;;;;;1.10;99.90;;;;;;5075229;28;20327;-81
2021/12/16 17:50:02;;;;;;;;;;;0.90;99.90;;;;;;5075617;28;19941;-81
2021/12/16 17:52:30;;;;;;;;;;;0.90;99.90;;;;;;5074274;28;19920;-81
2021/12/16 17:54:57;;;;;;;;;;;0.70;99.90;;;;;;5073868;28;19909;-81
2021/12/16 17:57:25;;;;;;;;;;;0.60;99.90;;;;;;5074998;28;19969;-82
2021/12/16 17:59:50;;;;;;;;;;;0.80;99.90;;;;;;5075424;28;19909;-82
2021/12/16 18:02:17;;;;;;;;;;;0.70;99.90;;;;;;5073478;28;19912;-81
2021/12/16 18:04:46;;;;;;;;;;;0.50;99.90;;;;;;5074805;28;19908;-82
2021/12/16 18:07:11;;;;;;;;;;;0.40;99.90;;;;;;5060759;28;19931;-82
2021/12/16 18:09:38;;;;;;;;;;;0.40;99.90;;;;;;5057437;28;20370;-82
2021/12/16 18:12:07;;;;;;;;;;;0.50;99.90;;;;;;5047582;28;19917;-82
2021/12/16 18:14:43;;;;;;;;;;;0.60;99.90;;;;;;5056164;28;20039;-82
2021/12/16 18:17:11;;;;;;;;;;;0.80;99.90;;;;;;5074077;28;19909;-82
2021/12/16 18:19:36;;;;;;;;;;;0.50;99.90;;;;;;5073677;28;19916;-82
2021/12/16 18:22:04;;;;;;;;;;;0.40;99.90;;;;;;5075457;28;19909;-81
2021/12/16 18:24:38;;;;;;;;;;;0.20;99.90;;;;;;5074073;28;20361;-82
2021/12/16 18:27:05;;;;;;;;;;;0.10;99.90;;;;;;5074818;28;20417;-81
2021/12/16 18:29:32;;;;;;;;;;;-0.10;99.90;;;;;;5074110;28;20297;-81
2021/12/16 18:31:58;;;;;;;;;;;-0.10;99.90;;;;;;5072278;28;19913;-80
2021/12/16 18:34:26;;;;;;;;;;;0.00;99.90;;;;;;5078444;28;19980;-80
2021/12/16 18:36:53;;;;;;;;;;;0.20;99.90;;;;;;5070908;28;19920;-80